Time;durP1;ratioP1;P1;durP2;ratioP2;P2;SDS_P1;SDS_P2;PMS_P1;PMS_P2;Temp;Humidity;BMP_temperature;BMP_pressure;BME280_temperature;BME280_humidity;BME280_pressure;Samples;Min_cycle;Max_cycle;Signal;HPM_P1;HPM_P2
2023/10/16 00:02:46;;;;;;;0.77;0.73;;;;;;;;;;5836863;28;20041;-68
2023/10/16 00:05:44;;;;;;;1.05;0.90;;;;;;;;;;5841992;28;20046;-68
2023/10/16 00:08:36;;;;;;;0.60;0.60;;;;;;;;;;5842174;28;20073;-68
2023/10/16 00:11:27;;;;;;;2.63;0.68;;;;;;;;;;5842783;28;20107;-68
2023/10/16 00:14:24;;;;;;;0.85;0.85;;;;;;;;;;5841956;28;20054;-68
2023/10/16 00:17:15;;;;;;;0.60;0.60;;;;;;;;;;5826386;28;20050;-68
2023/10/16 00:20:16;;;;;;;0.57;0.57;;;;;;;;;;5841054;28;20057;-69
2023/10/16 00:23:11;;;;;;;0.82;0.73;;;;;;;;;;5840110;28;20046;-68
2023/10/16 00:26:03;;;;;;;0.75;0.63;;;;;;;;;;5842549;28;20119;-68
2023/10/16 00:29:17;;;;;;;0.65;0.45;;;;;;;;;;5825360;28;20058;-68
2023/10/16 00:32:09;;;;;;;0.20;0.20;;;;;;;;;;5827756;28;20455;-69
2023/10/16 00:35:00;;;;;;;1.35;1.00;;;;;;;;;;5842415;28;20053;-68
2023/10/16 00:37:51;;;;;;;1.15;0.63;;;;;;;;;;5841480;28;20077;-68
2023/10/16 00:41:05;;;;;;;0.95;0.95;;;;;;;;;;5842356;28;20052;-68
2023/10/16 00:43:57;;;;;;;0.50;0.50;;;;;;;;;;5840712;28;20065;-68
2023/10/16 00:46:52;;;;;;;2.00;0.75;;;;;;;;;;5842118;28;20052;-68
2023/10/16 00:49:43;;;;;;;0.30;0.30;;;;;;;;;;5840610;28;20549;-68
2023/10/16 00:52:34;;;;;;;1.08;0.75;;;;;;;;;;5840402;28;20053;-68
2023/10/16 00:55:25;;;;;;;0.40;0.40;;;;;;;;;;5823546;28;20049;-68
2023/10/16 00:58:17;;;;;;;1.45;0.82;;;;;;;;;;5840835;28;20046;-68
2023/10/16 01:01:18;;;;;;;0.68;0.50;;;;;;;;;;5824349;28;20046;-69
2023/10/16 01:04:10;;;;;;;0.73;0.70;;;;;;;;;;5839614;28;20522;-68
2023/10/16 01:07:01;;;;;;;0.60;0.60;;;;;;;;;;5840373;28;20053;-67
2023/10/16 01:09:52;;;;;;;0.60;0.60;;;;;;;;;;5840026;28;20073;-68
2023/10/16 01:12:54;;;;;;;2.72;1.02;;;;;;;;;;5841633;28;20045;-68
2023/10/16 01:15:50;;;;;;;2.35;1.30;;;;;;;;;;5839830;28;20042;-68
2023/10/16 01:18:41;;;;;;;0.47;0.47;;;;;;;;;;5824425;28;20050;-68
2023/10/16 01:21:33;;;;;;;0.82;0.70;;;;;;;;;;5823640;28;20518;-67
2023/10/16 01:24:24;;;;;;;0.55;0.55;;;;;;;;;;5839600;28;20049;-67
2023/10/16 01:27:26;;;;;;;0.57;0.57;;;;;;;;;;5840185;28;20503;-68
2023/10/16 01:30:19;;;;;;;0.70;0.70;;;;;;;;;;5839706;28;20056;-68
2023/10/16 01:33:10;;;;;;;2.13;0.95;;;;;;;;;;5841017;28;20393;-67
2023/10/16 01:36:07;;;;;;;1.58;1.15;;;;;;;;;;5839883;28;20367;-69
2023/10/16 01:39:05;;;;;;;0.43;0.43;;;;;;;;;;5824474;28;20491;-67
2023/10/16 01:41:56;;;;;;;0.73;0.73;;;;;;;;;;5841230;28;20046;-68
2023/10/16 01:44:51;;;;;;;0.43;0.43;;;;;;;;;;5839270;28;20049;-68
2023/10/16 01:47:42;;;;;;;1.42;0.82;;;;;;;;;;5840916;28;20048;-67
2023/10/16 01:50:33;;;;;;;0.32;0.32;;;;;;;;;;5840982;28;20519;-68
2023/10/16 01:53:32;;;;;;;0.88;0.82;;;;;;;;;;5840021;28;20072;-68
2023/10/16 01:56:23;;;;;;;0.35;0.35;;;;;;;;;;5839565;28;20491;-68
2023/10/16 01:59:14;;;;;;;0.50;0.50;;;;;;;;;;5823463;28;20064;-68
2023/10/16 02:02:05;;;;;;;2.00;1.23;;;;;;;;;;5839368;28;20046;-69
2023/10/16 02:04:58;;;;;;;1.55;1.08;;;;;;;;;;5839391;28;20053;-68
2023/10/16 02:07:50;;;;;;;0.95;0.93;;;;;;;;;;5838680;28;20046;-68
2023/10/16 02:10:44;;;;;;;1.02;0.93;;;;;;;;;;5843475;28;20414;-68
2023/10/16 02:13:35;;;;;;;0.88;0.75;;;;;;;;;;5845276;28;20408;-68
2023/10/16 02:16:27;;;;;;;0.80;0.30;;;;;;;;;;5844844;28;20090;-68
2023/10/16 02:19:19;;;;;;;0.30;0.30;;;;;;;;;;5845118;28;20058;-68
2023/10/16 02:22:11;;;;;;;1.05;1.00;;;;;;;;;;5843644;28;20049;-68
2023/10/16 02:25:08;;;;;;;2.58;0.63;;;;;;;;;;5826793;28;20124;-69
2023/10/16 02:27:59;;;;;;;0.50;0.50;;;;;;;;;;5843807;28;20054;-68
2023/10/16 02:30:50;;;;;;;0.55;0.52;;;;;;;;;;5845180;28;20415;-68
2023/10/16 02:33:46;;;;;;;1.80;1.40;;;;;;;;;;5843334;28;20442;-68
2023/10/16 02:36:37;;;;;;;1.30;0.98;;;;;;;;;;5843421;28;20053;-68
2023/10/16 02:39:50;;;;;;;0.70;0.50;;;;;;;;;;5826824;28;20046;-68
2023/10/16 02:42:40;;;;;;;6.93;1.35;;;;;;;;;;5844612;28;20157;-68
2023/10/16 02:45:33;;;;;;;0.43;0.43;;;;;;;;;;5844262;28;20052;-68
2023/10/16 02:48:24;;;;;;;2.42;0.70;;;;;;;;;;5842671;28;20084;-69
2023/10/16 02:51:16;;;;;;;0.75;0.57;;;;;;;;;;5844489;28;20050;-68
2023/10/16 02:54:07;;;;;;;0.30;0.28;;;;;;;;;;5841969;28;20046;-68
2023/10/16 02:56:59;;;;;;;0.75;0.68;;;;;;;;;;5827620;28;20407;-68
2023/10/16 02:59:50;;;;;;;7.63;0.50;;;;;;;;;;5826890;28;20045;-68
2023/10/16 03:02:41;;;;;;;0.32;0.32;;;;;;;;;;5844215;28;20042;-68
2023/10/16 03:05:32;;;;;;;1.48;1.08;;;;;;;;;;5841443;28;20049;-68
2023/10/16 03:08:30;;;;;;;5.88;0.93;;;;;;;;;;5842030;28;20508;-68
2023/10/16 03:11:21;;;;;;;1.25;0.63;;;;;;;;;;5843837;28;20054;-68
2023/10/16 03:14:12;;;;;;;0.60;0.60;;;;;;;;;;5843692;28;20046;-68
2023/10/16 03:17:09;;;;;;;3.22;1.00;;;;;;;;;;5841615;28;20455;-69
2023/10/16 03:20:07;;;;;;;0.63;0.63;;;;;;;;;;5842327;28;20049;-68
2023/10/16 03:22:59;;;;;;;0.30;0.30;;;;;;;;;;5842238;28;20038;-68
2023/10/16 03:25:50;;;;;;;0.45;0.45;;;;;;;;;;5826108;28;20056;-68
2023/10/16 03:28:41;;;;;;;0.45;0.43;;;;;;;;;;5842166;28;20061;-68
2023/10/16 03:31:39;;;;;;;1.50;0.80;;;;;;;;;;5842510;28;20440;-68
2023/10/16 03:34:31;;;;;;;1.10;0.90;;;;;;;;;;5843420;28;20046;-68
2023/10/16 03:37:24;;;;;;;2.50;1.02;;;;;;;;;;5825708;28;20116;-68
2023/10/16 03:40:16;;;;;;;3.83;1.23;;;;;;;;;;5841444;28;20061;-68
2023/10/16 03:43:08;;;;;;;3.55;0.88;;;;;;;;;;5841900;28;20392;-68
2023/10/16 03:46:02;;;;;;;2.83;1.17;;;;;;;;;;5842137;28;20061;-68
2023/10/16 03:48:56;;;;;;;15.63;1.13;;;;;;;;;;5826238;28;20052;-68
2023/10/16 03:51:49;;;;;;;0.57;0.57;;;;;;;;;;5826058;28;20061;-68
2023/10/16 03:54:41;;;;;;;1.67;0.75;;;;;;;;;;5841298;28;20068;-68
2023/10/16 03:57:34;;;;;;;0.43;0.43;;;;;;;;;;5841366;28;20049;-68
2023/10/16 04:00:43;;;;;;;1.90;1.08;;;;;;;;;;5841429;28;20046;-68
2023/10/16 04:06:46;;;;;;;0.85;0.73;;;;;;;;;;5838869;28;20050;-68
2023/10/16 04:09:45;;;;;;;1.55;1.20;;;;;;;;;;5842291;28;20053;-68
2023/10/16 04:12:51;;;;;;;2.78;0.65;;;;;;;;;;5841649;28;20046;-68
2023/10/16 04:18:39;;;;;;;1.25;0.85;;;;;;;;;;5841013;28;20045;-68
2023/10/16 04:21:37;;;;;;;0.40;0.40;;;;;;;;;;5841594;28;20057;-68
2023/10/16 04:30:39;;;;;;;0.60;0.60;;;;;;;;;;5840626;28;20053;-69
2023/10/16 04:33:48;;;;;;;0.20;0.20;;;;;;;;;;5840031;28;20054;-68
2023/10/16 04:42:50;;;;;;;0.77;0.70;;;;;;;;;;5840905;28;20503;-68
2023/10/16 04:45:59;;;;;;;0.52;0.52;;;;;;;;;;5840973;28;20057;-68
2023/10/16 04:48:54;;;;;;;2.75;0.73;;;;;;;;;;5840812;28;20072;-67
2023/10/16 04:52:14;;;;;;;0.68;0.68;;;;;;;;;;5825127;28;20065;-68
2023/10/16 04:55:01;;;;;;;0.60;0.60;;;;;;;;;;5839842;28;20042;-68
2023/10/16 04:58:27;;;;;;;0.50;0.50;;;;;;;;;;5840189;28;20050;-68
2023/10/16 05:04:49;;;;;;;0.20;0.20;;;;;;;;;;5839977;28;20061;-68
2023/10/16 05:07:45;;;;;;;0.55;0.45;;;;;;;;;;5840406;28;20066;-68
2023/10/16 05:10:51;;;;;;;1.45;0.68;;;;;;;;;;5840483;28;20053;-68
2023/10/16 06:14:20;;;;;;;0.70;0.70;;;;;;;;;;5839344;28;20419;-68
2023/10/16 06:17:15;;;;;;;1.33;1.23;;;;;;;;;;5839113;28;20112;-68
2023/10/16 06:20:11;;;;;;;0.60;0.60;;;;;;;;;;5839081;28;20066;-69
2023/10/16 06:23:04;;;;;;;3.42;0.80;;;;;;;;;;5840087;28;20495;-68
2023/10/16 06:25:55;;;;;;;0.60;0.45;;;;;;;;;;5840890;28;20124;-67
2023/10/16 06:28:49;;;;;;;1.05;0.75;;;;;;;;;;5839992;28;20054;-68
2023/10/16 06:31:49;;;;;;;0.55;0.55;;;;;;;;;;5839160;28;20050;-68
2023/10/16 06:34:41;;;;;;;4.95;0.95;;;;;;;;;;5823998;28;20503;-68
2023/10/16 06:37:32;;;;;;;1.45;1.20;;;;;;;;;;5838734;28;20041;-68
2023/10/16 06:40:25;;;;;;;1.40;0.88;;;;;;;;;;5838815;28;20046;-67
2023/10/16 06:43:16;;;;;;;1.02;0.95;;;;;;;;;;5838669;28;20045;-68
2023/10/16 06:46:10;;;;;;;0.77;0.77;;;;;;;;;;5839920;28;20058;-68
2023/10/16 06:49:01;;;;;;;0.88;0.88;;;;;;;;;;5823002;28;20054;-69
2023/10/16 06:51:56;;;;;;;0.95;0.75;;;;;;;;;;5839058;28;20550;-68
2023/10/16 06:54:48;;;;;;;1.38;1.05;;;;;;;;;;5838588;28;20101;-68
2023/10/16 06:57:39;;;;;;;0.28;0.28;;;;;;;;;;5826942;28;20129;-68
2023/10/16 07:00:33;;;;;;;1.77;0.95;;;;;;;;;;5842970;28;20054;-68
2023/10/16 07:03:24;;;;;;;1.42;1.05;;;;;;;;;;5842365;28;20161;-68
2023/10/16 07:06:15;;;;;;;0.57;0.52;;;;;;;;;;5844212;28;20058;-68
2023/10/16 07:09:06;;;;;;;1.08;0.70;;;;;;;;;;5825989;28;20053;-68
2023/10/16 07:12:03;;;;;;;1.27;1.05;;;;;;;;;;5826542;28;20131;-68
2023/10/16 07:14:57;;;;;;;0.57;0.57;;;;;;;;;;5842922;28;20073;-68
2023/10/16 07:17:50;;;;;;;1.92;0.63;;;;;;;;;;5842512;28;20053;-69
2023/10/16 07:24:04;;;;;;;1.33;0.98;;;;;;;;;;5820322;28;20518;-68
2023/10/16 07:26:55;;;;;;;0.85;0.32;;;;;;;;;;5844271;28;20046;-68
2023/10/16 07:29:46;;;;;;;1.60;1.20;;;;;;;;;;5843566;28;20052;-68
2023/10/16 07:32:37;;;;;;;0.82;0.82;;;;;;;;;;5841871;28;20053;-68
2023/10/16 07:35:28;;;;;;;5.43;1.52;;;;;;;;;;5842191;28;20046;-68
2023/10/16 07:38:22;;;;;;;3.00;0.75;;;;;;;;;;5841218;28;20125;-68
2023/10/16 07:41:13;;;;;;;0.30;0.30;;;;;;;;;;5826195;28;20042;-69
2023/10/16 07:44:04;;;;;;;0.68;0.50;;;;;;;;;;5843244;28;20046;-68
2023/10/16 07:46:58;;;;;;;4.55;1.33;;;;;;;;;;5842286;28;20057;-68
2023/10/16 07:49:49;;;;;;;10.15;1.00;;;;;;;;;;5842043;28;20061;-67
2023/10/16 07:52:42;;;;;;;0.70;0.70;;;;;;;;;;5841053;28;20410;-68
2023/10/16 07:55:39;;;;;;;2.97;1.27;;;;;;;;;;5843197;28;20487;-68
2023/10/16 07:58:47;;;;;;;1.25;0.75;;;;;;;;;;5841757;28;20049;-68
2023/10/16 08:01:52;;;;;;;2.05;1.35;;;;;;;;;;5841405;28;20129;-68
2023/10/16 08:04:44;;;;;;;0.80;0.80;;;;;;;;;;5827215;28;20045;-68
2023/10/16 08:07:47;;;;;;;7.95;1.77;;;;;;;;;;5825368;28;20415;-68
2023/10/16 08:10:44;;;;;;;3.17;1.20;;;;;;;;;;5843076;28;20176;-68
2023/10/16 08:13:34;;;;;;;9.05;0.85;;;;;;;;;;5825740;28;20045;-68
2023/10/16 08:16:26;;;;;;;2.05;0.73;;;;;;;;;;5841381;28;20057;-68
2023/10/16 08:19:24;;;;;;;0.52;0.52;;;;;;;;;;5842414;28;20057;-68
2023/10/16 08:22:15;;;;;;;1.80;0.95;;;;;;;;;;5840891;28;20053;-68
2023/10/16 08:25:07;;;;;;;0.55;0.43;;;;;;;;;;5840989;28;20053;-69
2023/10/16 08:28:18;;;;;;;0.65;0.65;;;;;;;;;;5842656;28;20204;-68
2023/10/16 08:31:24;;;;;;;5.10;1.50;;;;;;;;;;5827222;28;20049;-68
2023/10/16 08:34:21;;;;;;;1.45;1.35;;;;;;;;;;5841618;28;20127;-68
2023/10/16 08:37:13;;;;;;;0.88;0.65;;;;;;;;;;5825699;28;20061;-68
2023/10/16 08:40:18;;;;;;;0.82;0.82;;;;;;;;;;5824187;28;20176;-69
2023/10/16 08:43:09;;;;;;;0.75;0.75;;;;;;;;;;5840525;28;20072;-68
2023/10/16 08:46:02;;;;;;;2.97;1.52;;;;;;;;;;5841252;28;20526;-68
2023/10/16 08:48:57;;;;;;;0.73;0.65;;;;;;;;;;5840856;28;20415;-68
2023/10/16 08:51:50;;;;;;;2.70;1.45;;;;;;;;;;5840707;28;20042;-68
2023/10/16 08:57:42;;;;;;;1.70;0.65;;;;;;;;;;5840876;28;20391;-68
2023/10/16 09:00:33;;;;;;;0.98;0.90;;;;;;;;;;5840243;28;20128;-68
2023/10/16 09:03:24;;;;;;;2.28;0.98;;;;;;;;;;5839798;28;20133;-68
2023/10/16 09:06:37;;;;;;;0.30;0.30;;;;;;;;;;5840386;28;20058;-68
2023/10/16 09:09:29;;;;;;;1.27;1.02;;;;;;;;;;5839891;28;20046;-68
2023/10/16 09:12:26;;;;;;;2.90;1.63;;;;;;;;;;5839552;28;20069;-68
2023/10/16 09:15:24;;;;;;;5.95;1.25;;;;;;;;;;5841350;28;20055;-68
2023/10/16 09:18:15;;;;;;;3.20;0.88;;;;;;;;;;5840571;28;20053;-68
2023/10/16 09:21:13;;;;;;;0.50;0.50;;;;;;;;;;5840181;28;20048;-70
2023/10/16 09:24:05;;;;;;;1.27;1.00;;;;;;;;;;5838837;28;20046;-69
2023/10/16 09:26:56;;;;;;;1.90;1.30;;;;;;;;;;5841637;28;20054;-68
2023/10/16 09:29:53;;;;;;;1.60;0.63;;;;;;;;;;5840872;28;20046;-68
2023/10/16 09:32:48;;;;;;;0.52;0.52;;;;;;;;;;5840812;28;20052;-69
2023/10/16 09:35:45;;;;;;;0.70;0.65;;;;;;;;;;5817248;28;20101;-68
2023/10/16 09:38:42;;;;;;;1.35;1.00;;;;;;;;;;5826039;28;20046;-68
2023/10/16 09:41:40;;;;;;;0.68;0.60;;;;;;;;;;5839926;28;20448;-69
2023/10/16 09:44:38;;;;;;;2.22;1.73;;;;;;;;;;5830644;28;20046;-68
2023/10/16 09:47:31;;;;;;;3.42;1.73;;;;;;;;;;5839624;28;20049;-68
2023/10/16 09:50:24;;;;;;;3.38;0.95;;;;;;;;;;5839554;28;20049;-68
2023/10/16 09:53:17;;;;;;;12.07;1.70;;;;;;;;;;5838722;28;20068;-69
2023/10/16 09:56:09;;;;;;;2.60;0.77;;;;;;;;;;5840842;28;20050;-69
2023/10/16 09:59:02;;;;;;;4.00;1.55;;;;;;;;;;5839953;28;20061;-68
2023/10/16 10:02:02;;;;;;;2.97;0.77;;;;;;;;;;5823676;28;20045;-68
2023/10/16 10:05:04;;;;;;;2.05;0.90;;;;;;;;;;5839509;28;20057;-68
2023/10/16 10:07:59;;;;;;;1.15;1.05;;;;;;;;;;5838341;28;20054;-68
2023/10/16 10:11:17;;;;;;;0.47;0.47;;;;;;;;;;5839994;28;20050;-68
2023/10/16 10:14:39;;;;;;;6.30;1.65;;;;;;;;;;5828386;28;20049;-68
2023/10/16 10:17:34;;;;;;;1.02;0.65;;;;;;;;;;5839674;28;20092;-69
2023/10/16 10:20:26;;;;;;;1.65;0.93;;;;;;;;;;5839442;28;20129;-69
2023/10/16 10:23:17;;;;;;;0.73;0.73;;;;;;;;;;5822179;28;20407;-68
2023/10/16 10:26:07;;;;;;;2.53;0.95;;;;;;;;;;5839118;28;20049;-69
2023/10/16 10:29:11;;;;;;;5.93;1.42;;;;;;;;;;5839662;28;20050;-69
2023/10/16 10:32:09;;;;;;;1.02;0.90;;;;;;;;;;5826533;28;20495;-70
2023/10/16 10:35:23;;;;;;;0.93;0.93;;;;;;;;;;5845146;28;20053;-69
2023/10/16 10:38:29;;;;;;;0.88;0.50;;;;;;;;;;5843855;28;20137;-69
2023/10/16 10:41:24;;;;;;;1.08;0.47;;;;;;;;;;5844688;28;20132;-69
2023/10/16 10:44:19;;;;;;;0.70;0.70;;;;;;;;;;5844311;28;20084;-69
2023/10/16 10:47:30;;;;;;;0.80;0.80;;;;;;;;;;5827208;28;20057;-69
2023/10/16 10:50:23;;;;;;;12.68;2.15;;;;;;;;;;5844306;28;20049;-69
2023/10/16 10:53:15;;;;;;;1.00;0.77;;;;;;;;;;5842736;28;20046;-68
2023/10/16 10:56:07;;;;;;;3.08;1.05;;;;;;;;;;5842650;28;20057;-70
2023/10/16 10:59:08;;;;;;;2.28;2.08;;;;;;;;;;5843704;28;20050;-68
2023/10/16 11:05:22;;;;;;;3.60;1.55;;;;;;;;;;5844232;28;20610;-69
2023/10/16 11:11:10;;;;;;;7.53;5.65;;;;;;;;;;5842935;28;20419;-69
2023/10/16 11:14:04;;;;;;;3.53;1.27;;;;;;;;;;5842727;28;20057;-73
2023/10/16 11:16:55;;;;;;;4.30;1.60;;;;;;;;;;5843394;28;20056;-68
2023/10/16 11:19:47;;;;;;;3.92;2.38;;;;;;;;;;5842390;28;20048;-68
2023/10/16 11:22:44;;;;;;;9.95;2.65;;;;;;;;;;5826507;28;20046;-68
2023/10/16 11:25:35;;;;;;;8.90;2.60;;;;;;;;;;5842557;28;20521;-69
2023/10/16 11:28:31;;;;;;;4.95;2.15;;;;;;;;;;5825933;28;20392;-69
2023/10/16 11:31:24;;;;;;;6.18;2.63;;;;;;;;;;5843516;28;20512;-69
2023/10/16 11:34:21;;;;;;;5.90;3.25;;;;;;;;;;5843390;28;20080;-69
2023/10/16 11:37:13;;;;;;;3.78;2.22;;;;;;;;;;5827135;28;20049;-69
2023/10/16 11:40:18;;;;;;;8.38;2.80;;;;;;;;;;5841377;28;20137;-69
2023/10/16 11:43:12;;;;;;;2.53;1.65;;;;;;;;;;5843006;28;20058;-68
2023/10/16 11:46:12;;;;;;;2.92;1.52;;;;;;;;;;5842488;28;20208;-69
2023/10/16 11:52:10;;;;;;;4.40;1.27;;;;;;;;;;5841627;28;20096;-69
2023/10/16 11:55:07;;;;;;;0.82;0.60;;;;;;;;;;5841524;28;20056;-72
2023/10/16 11:57:58;;;;;;;4.95;1.15;;;;;;;;;;5843593;28;20633;-68
2023/10/16 12:00:54;;;;;;;2.42;1.02;;;;;;;;;;5825693;28;20049;-69
2023/10/16 12:03:45;;;;;;;8.43;1.60;;;;;;;;;;5841539;28;20053;-68
2023/10/16 12:06:38;;;;;;;5.38;1.48;;;;;;;;;;5841767;28;20046;-68
2023/10/16 12:09:36;;;;;;;1.10;0.68;;;;;;;;;;5842509;28;20500;-68
2023/10/16 12:12:28;;;;;;;1.30;1.05;;;;;;;;;;5842420;28;20072;-68
2023/10/16 12:15:19;;;;;;;2.25;2.00;;;;;;;;;;5841467;28;20046;-68
2023/10/16 12:18:12;;;;;;;1.77;1.20;;;;;;;;;;5842247;28;20050;-68
2023/10/16 12:21:06;;;;;;;6.05;3.90;;;;;;;;;;5825314;28;20045;-69
2023/10/16 12:23:57;;;;;;;6.25;4.30;;;;;;;;;;5842254;28;20050;-68
2023/10/16 12:26:48;;;;;;;2.05;1.85;;;;;;;;;;5842635;28;20072;-68
2023/10/16 12:29:41;;;;;;;3.22;2.08;;;;;;;;;;5824949;28;20054;-68
2023/10/16 12:32:32;;;;;;;10.57;3.85;;;;;;;;;;5824690;28;20149;-68
2023/10/16 12:35:25;;;;;;;5.93;3.13;;;;;;;;;;5840256;28;20073;-69
2023/10/16 12:38:18;;;;;;;5.07;2.03;;;;;;;;;;5841292;28;20137;-69
2023/10/16 12:41:09;;;;;;;5.20;2.63;;;;;;;;;;5824798;28;20087;-69
2023/10/16 12:44:01;;;;;;;2.67;1.80;;;;;;;;;;5840663;28;20041;-69
2023/10/16 12:46:53;;;;;;;2.60;2.08;;;;;;;;;;5842129;28;20052;-70
2023/10/16 12:49:44;;;;;;;10.15;2.05;;;;;;;;;;5841941;28;20392;-69
2023/10/16 12:52:35;;;;;;;5.68;3.13;;;;;;;;;;5841315;28;20057;-69
2023/10/16 12:55:28;;;;;;;3.97;1.52;;;;;;;;;;5840649;28;20050;-69
2023/10/16 12:58:19;;;;;;;1.77;1.48;;;;;;;;;;5840491;28;20140;-69
2023/10/16 13:01:10;;;;;;;1.70;1.40;;;;;;;;;;5817234;28;20049;-69
2023/10/16 13:04:03;;;;;;;7.00;1.80;;;;;;;;;;5824812;28;20511;-70
2023/10/16 13:06:54;;;;;;;10.90;2.75;;;;;;;;;;5842124;28;20054;-69
2023/10/16 13:09:47;;;;;;;6.60;2.60;;;;;;;;;;5840238;28;20057;-69
2023/10/16 13:12:39;;;;;;;1.88;1.70;;;;;;;;;;5824567;28;20050;-69
2023/10/16 13:15:31;;;;;;;2.58;1.98;;;;;;;;;;5841547;28;20046;-69
2023/10/16 13:18:28;;;;;;;9.75;4.50;;;;;;;;;;5839947;28;20045;-68
2023/10/16 13:21:19;;;;;;;2.08;1.40;;;;;;;;;;5840183;28;20181;-69
2023/10/16 13:24:11;;;;;;;3.60;2.78;;;;;;;;;;5839249;28;20046;-69
2023/10/16 13:27:02;;;;;;;3.25;2.95;;;;;;;;;;5823945;28;20188;-69
2023/10/16 13:29:53;;;;;;;3.13;1.88;;;;;;;;;;5839991;28;20061;-68
2023/10/16 13:32:48;;;;;;;6.43;3.10;;;;;;;;;;5839693;28;20529;-68
2023/10/16 13:35:39;;;;;;;3.47;1.75;;;;;;;;;;5817327;28;20125;-69
2023/10/16 13:38:31;;;;;;;13.02;3.25;;;;;;;;;;5808504;28;20050;-69
2023/10/16 13:41:23;;;;;;;5.75;1.95;;;;;;;;;;5840798;28;20046;-68
2023/10/16 13:44:14;;;;;;;10.65;3.08;;;;;;;;;;5841008;28;20554;-69
2023/10/16 13:47:05;;;;;;;7.40;5.00;;;;;;;;;;5840068;28;20053;-69
2023/10/16 13:49:57;;;;;;;5.25;2.45;;;;;;;;;;5840061;28;20164;-68
2023/10/16 13:52:48;;;;;;;5.47;2.65;;;;;;;;;;5838889;28;20128;-68
2023/10/16 13:55:41;;;;;;;12.88;6.75;;;;;;;;;;5840091;28;20053;-68
2023/10/16 13:58:31;;;;;;;14.15;4.70;;;;;;;;;;5840715;28;20069;-68
2023/10/16 14:01:22;;;;;;;7.95;4.88;;;;;;;;;;5838901;28;20596;-68
2023/10/16 14:04:21;;;;;;;6.90;3.90;;;;;;;;;;5839142;28;20061;-69
2023/10/16 14:07:15;;;;;;;2.50;2.10;;;;;;;;;;5843221;28;20089;-68
2023/10/16 14:10:07;;;;;;;3.70;1.98;;;;;;;;;;5827636;28;20512;-69
2023/10/16 14:13:10;;;;;;;2.10;1.90;;;;;;;;;;5843587;28;20133;-69
2023/10/16 14:16:20;;;;;;;3.50;1.65;;;;;;;;;;5843020;28;20054;-69
2023/10/16 14:19:12;;;;;;;2.50;1.48;;;;;;;;;;5843379;28;20503;-69
2023/10/16 14:22:06;;;;;;;10.27;2.53;;;;;;;;;;5843231;28;20058;-68
2023/10/16 14:24:58;;;;;;;2.50;1.45;;;;;;;;;;5844827;28;20045;-68
2023/10/16 14:27:48;;;;;;;4.15;1.48;;;;;;;;;;5843607;28;20121;-69
2023/10/16 14:30:39;;;;;;;6.25;3.13;;;;;;;;;;5842757;28;20046;-68
2023/10/16 14:33:39;;;;;;;8.15;2.15;;;;;;;;;;5840269;28;20046;-68
2023/10/16 14:36:31;;;;;;;3.00;1.63;;;;;;;;;;5843022;28;20052;-68
2023/10/16 14:39:28;;;;;;;1.45;0.90;;;;;;;;;;5844956;28;20046;-68
2023/10/16 14:42:20;;;;;;;8.03;3.27;;;;;;;;;;5819824;28;20415;-68
2023/10/16 14:45:11;;;;;;;4.72;2.53;;;;;;;;;;5841932;28;20061;-68
2023/10/16 14:48:04;;;;;;;3.45;2.17;;;;;;;;;;5842735;28;20050;-69
2023/10/16 14:50:55;;;;;;;5.63;1.70;;;;;;;;;;5843805;28;20054;-68
2023/10/16 14:53:50;;;;;;;3.30;1.60;;;;;;;;;;5843478;28;20431;-68
2023/10/16 14:56:46;;;;;;;1.67;1.00;;;;;;;;;;5843144;28;20503;-68
2023/10/16 14:59:37;;;;;;;5.68;2.42;;;;;;;;;;5843042;28;20050;-68
2023/10/16 15:02:28;;;;;;;2.88;2.58;;;;;;;;;;5827072;28;20121;-68
2023/10/16 15:05:20;;;;;;;2.75;2.47;;;;;;;;;;5843379;28;20113;-68
2023/10/16 15:08:14;;;;;;;2.78;1.60;;;;;;;;;;5843752;28;20050;-68
2023/10/16 15:11:10;;;;;;;3.50;2.65;;;;;;;;;;5842268;28;20503;-68
2023/10/16 15:14:01;;;;;;;5.20;3.05;;;;;;;;;;5842538;28;20073;-69
2023/10/16 15:16:54;;;;;;;7.30;3.28;;;;;;;;;;5826257;28;20046;-68
2023/10/16 15:19:45;;;;;;;3.63;3.03;;;;;;;;;;5843669;28;20061;-68
2023/10/16 15:22:42;;;;;;;8.10;3.83;;;;;;;;;;5842869;28;20042;-68
2023/10/16 15:25:32;;;;;;;4.97;2.38;;;;;;;;;;5843373;28;20053;-68
2023/10/16 15:28:25;;;;;;;4.63;2.97;;;;;;;;;;5842376;28;20398;-68
2023/10/16 15:31:35;;;;;;;3.13;2.47;;;;;;;;;;5842686;28;20045;-68
2023/10/16 15:34:26;;;;;;;7.88;3.78;;;;;;;;;;5841454;28;20492;-68
2023/10/16 15:37:18;;;;;;;6.32;3.30;;;;;;;;;;5826234;28;20045;-68
2023/10/16 15:40:16;;;;;;;19.23;2.70;;;;;;;;;;5842560;28;20418;-68
2023/10/16 15:43:07;;;;;;;1.70;1.42;;;;;;;;;;5842007;28;20048;-69
2023/10/16 15:45:58;;;;;;;4.45;3.03;;;;;;;;;;5842962;28;20049;-68
2023/10/16 15:48:49;;;;;;;2.40;1.73;;;;;;;;;;5840829;28;20045;-68
2023/10/16 15:51:40;;;;;;;2.15;1.95;;;;;;;;;;5842013;28;20500;-68
2023/10/16 15:54:32;;;;;;;9.25;6.70;;;;;;;;;;5825866;28;20050;-68
2023/10/16 15:57:34;;;;;;;8.68;6.40;;;;;;;;;;5841806;28;20129;-68
2023/10/16 16:00:26;;;;;;;14.57;6.10;;;;;;;;;;5836030;28;20126;-68
2023/10/16 16:03:17;;;;;;;7.80;4.22;;;;;;;;;;5840343;28;20522;-68
2023/10/16 16:06:12;;;;;;;5.93;2.83;;;;;;;;;;5825684;28;20058;-69
2023/10/16 16:09:13;;;;;;;1.52;1.42;;;;;;;;;;5840802;28;20064;-68
2023/10/16 16:12:08;;;;;;;4.18;2.33;;;;;;;;;;5841672;28;20392;-68
2023/10/16 16:15:29;;;;;;;3.20;2.08;;;;;;;;;;5841277;28;20058;-69
2023/10/16 16:18:23;;;;;;;5.28;3.05;;;;;;;;;;5828009;28;20061;-68
2023/10/16 16:21:17;;;;;;;4.88;2.42;;;;;;;;;;5825438;28;20060;-68
2023/10/16 16:24:16;;;;;;;3.33;1.75;;;;;;;;;;5840184;28;20135;-68
2023/10/16 16:27:11;;;;;;;3.33;2.13;;;;;;;;;;5841706;28;20058;-68
2023/10/16 16:30:04;;;;;;;4.93;2.83;;;;;;;;;;5840158;28;20045;-69
2023/10/16 16:32:59;;;;;;;2.53;2.33;;;;;;;;;;5824958;28;20412;-68
2023/10/16 16:35:51;;;;;;;3.83;3.15;;;;;;;;;;5838001;28;20132;-68
2023/10/16 16:38:42;;;;;;;5.63;3.60;;;;;;;;;;5824655;28;20053;-68
2023/10/16 16:41:40;;;;;;;8.68;4.85;;;;;;;;;;5824453;28;20046;-68
2023/10/16 16:44:33;;;;;;;7.28;6.13;;;;;;;;;;5840387;28;20141;-68
2023/10/16 16:47:26;;;;;;;12.27;8.27;;;;;;;;;;5839883;28;20054;-68
2023/10/16 16:50:17;;;;;;;21.05;9.82;;;;;;;;;;5840280;28;20128;-68
2023/10/16 16:53:10;;;;;;;20.10;12.80;;;;;;;;;;5830187;28;20053;-68
2023/10/16 16:56:02;;;;;;;25.63;13.88;;;;;;;;;;5845233;28;20052;-69
2023/10/16 16:58:53;;;;;;;17.92;13.70;;;;;;;;;;5840421;28;20073;-68
2023/10/16 17:01:49;;;;;;;35.10;19.30;;;;;;;;;;5848440;28;20052;-68
2023/10/16 17:04:48;;;;;;;41.92;24.05;;;;;;;;;;5823262;28;20448;-68
2023/10/16 17:07:41;;;;;;;53.25;23.00;;;;;;;;;;5831686;28;20470;-68
2023/10/16 17:10:32;;;;;;;35.33;18.52;;;;;;;;;;5807685;28;20049;-68
2023/10/16 17:13:24;;;;;;;32.00;19.00;;;;;;;;;;5838691;28;20400;-68
2023/10/16 17:16:16;;;;;;;21.42;12.63;;;;;;;;;;5820850;28;20070;-68
2023/10/16 17:19:07;;;;;;;16.95;10.13;;;;;;;;;;5840375;28;20054;-68
2023/10/16 17:21:58;;;;;;;19.42;10.98;;;;;;;;;;5840099;28;20045;-68
2023/10/16 17:24:50;;;;;;;24.15;8.43;;;;;;;;;;5846878;28;20053;-68
2023/10/16 17:27:42;;;;;;;13.73;6.07;;;;;;;;;;5823662;28;20129;-68
2023/10/16 17:30:33;;;;;;;7.05;5.88;;;;;;;;;;5823481;28;20125;-68
2023/10/16 17:33:24;;;;;;;10.25;4.78;;;;;;;;;;5822573;28;20096;-68
2023/10/16 17:36:15;;;;;;;8.68;5.03;;;;;;;;;;5840598;28;20062;-68
2023/10/16 17:39:07;;;;;;;4.13;3.08;;;;;;;;;;5839075;28;20054;-69
2023/10/16 17:42:00;;;;;;;9.07;4.93;;;;;;;;;;5840638;28;20128;-68
2023/10/16 17:44:51;;;;;;;6.97;5.53;;;;;;;;;;5839185;28;20045;-68
2023/10/16 17:47:50;;;;;;;8.60;4.25;;;;;;;;;;5840011;28;20129;-68
2023/10/16 17:50:43;;;;;;;12.07;6.03;;;;;;;;;;5824731;28;20050;-68
2023/10/16 17:53:38;;;;;;;5.63;4.30;;;;;;;;;;5839241;28;20104;-68
2023/10/16 17:56:29;;;;;;;8.57;5.50;;;;;;;;;;5823505;28;20046;-68
2023/10/16 17:59:20;;;;;;;8.75;4.95;;;;;;;;;;5840080;28;20061;-68
2023/10/16 18:02:13;;;;;;;7.95;5.60;;;;;;;;;;5841034;28;20577;-68
2023/10/16 18:05:05;;;;;;;5.45;4.22;;;;;;;;;;5828832;28;20408;-68
2023/10/16 18:07:58;;;;;;;14.50;10.07;;;;;;;;;;5852491;28;20072;-68
2023/10/16 18:10:49;;;;;;;16.45;9.38;;;;;;;;;;5822858;28;20136;-68
2023/10/16 18:13:51;;;;;;;14.93;8.40;;;;;;;;;;5839289;28;20046;-68
2023/10/16 18:16:42;;;;;;;15.93;10.55;;;;;;;;;;5830727;28;20054;-68
2023/10/16 18:19:38;;;;;;;17.85;12.52;;;;;;;;;;5827185;28;20420;-68
2023/10/16 18:22:29;;;;;;;28.23;13.35;;;;;;;;;;5816475;28;20120;-68
2023/10/16 18:25:24;;;;;;;34.70;16.08;;;;;;;;;;5811340;28;20053;-68
2023/10/16 18:28:17;;;;;;;40.78;24.77;;;;;;;;;;5818809;28;20042;-68
2023/10/16 18:31:11;;;;;;;47.45;32.03;;;;;;;;;;5824212;28;20049;-68
2023/10/16 18:34:03;;;;;;;36.92;24.63;;;;;;;;;;5839099;28;20056;-68
2023/10/16 18:37:00;;;;;;;28.20;11.25;;;;;;;;;;5823507;28;20046;-68
2023/10/16 18:39:56;;;;;;;;;;;;;;;;;;5839497;28;20054;-68
2023/10/16 18:42:51;;;;;;;18.23;13.27;;;;;;;;;;5839188;28;19921;-68
2023/10/16 18:45:44;;;;;;;25.70;14.65;;;;;;;;;;5829715;28;20389;-68
2023/10/16 18:48:36;;;;;;;24.15;12.23;;;;;;;;;;5819028;28;20057;-68
2023/10/16 18:51:28;;;;;;;20.35;13.25;;;;;;;;;;5836729;28;20479;-68
2023/10/16 18:54:22;;;;;;;21.77;11.80;;;;;;;;;;5842516;28;20128;-68
2023/10/16 18:57:14;;;;;;;21.17;12.85;;;;;;;;;;5842698;28;20555;-68
2023/10/16 19:00:08;;;;;;;18.95;11.55;;;;;;;;;;5842683;28;20060;-68
2023/10/16 19:03:02;;;;;;;25.27;9.30;;;;;;;;;;5843837;28;20100;-68